PROFILE

 METAR AND TAF INFORMATION
ADDS - METARS form results

(1052 UTC 18 May 2022)
http://aviationweather.gov/metar/data/
 
ENSB 181050Z VRB02KT 9999 FEW020 M01/M06 Q1019 NOSIG RMK WIND 1400FT VRB02KT
ENSB 181020Z VRB02KT 9999 FEW020 M01/M06 Q1019 NOSIG RMK WIND 1400FT 19003KT
TAF ENSB 1806/1906 36005KT 9999 FEW020 BECMG 1811/1813 25015KT 

 AIRPORT MAP

 RUNWAY INFORMATION
Runway 10 Runway length 7608 ft Runway width 148 ft
Runway elevation 63 ft Runway displaced threshold 199 ft Runway heading 105
Runway 28 Runway length 7608 ft Runway width 148 ft
Runway elevation 73 ft Runway displaced threshold 395 ft Runway heading 285

 AIRPORT FREQUENCIES
Type AFIS Name INFO Frequency 118.1 MHZ
Type AFIS Name INFO Frequency 884 MHZ

 AIRPORT NEAR NAVIGATION AIDS